Basrah, Iraq

8:54 AM AST on September 04, 2015 (GMT +0300)
Abadan | | Change Station
CLOSE
Current Station
Airport
Location: Abadan,
Elevation: 10 ft
Nearby Weather Stations

Elev 10 ft 30.37 °N, 48.25 °E | Updated 54 minutes ago

Clear
Clear
90 °F
Feels Like 90 °F
N
0
Wind Variable Wind from North

Today
High -- | Low -- °F
--% Chance of Precip.
Yesterday
High -- | Low -- °F
Precip. -- in
5:26 AM 6:08 PM
Waning Gibbous, 63% visible
Pressure 29.62 in
Visibility 5.0 miles
Clouds
Heat Index 90 °F
Dew Point 61 °F
Humidity 38%
Rainfall 0.00 in
Snow Depth Not available.
UV Not available.
Pollen Not available.
Air Quality Not available.
Flu Activity Not available.
METAR OIAA 040500Z 00000KT 8000 NSC 32/16 Q1003
Pressure 29.62 in
Visibility 5.0 miles
Clouds
Heat Index 90 °F
Dew Point 61 °F
Humidity 38%
Rainfall 0.00 in
Snow Depth Not available.
UV Not available.
Pollen Not available.
Air Quality Not available.
Flu Activity Not available.
METAR OIAA 040500Z 00000KT 8000 NSC 32/16 Q1003

10-Day Weather Forecast

×

Almanac

Astronomy

Sep. 04, 2015 Rise Set
Actual Time
Civil Twilight
Nautical Twilight
Astronomical Twilight
Moon
Length of Visible Light
Length of Day
Tomorrow will be .
, % of the Moon is Illuminated

Today's Extremes

Country Highs Country Lows

Community

WunderPhotos

Upload Photos

1,852,129 photos uploaded!

WunderBlogs® & News

Nearby

Air Quality

  Air Quality AQ Index Pollutant
Not available.

Snow Depth

Station Depth Elevation

Earthquake Activity

City Distance Mag. Time & Date
Minimum magnitude displayed is 2.5.

Coastal Water Temperatures

Place Temperature

Stations

Nearby Weather Stations

Station Location Temp. Windchill Dew Point Humidity Wind Precip. Elev Updated Type